Time;durP1;ratioP1;P1;durP2;ratioP2;P2;SDS_P1;SDS_P2;PMS_P1;PMS_P2;Temp;Humidity;BMP_temperature;BMP_pressure;BME280_temperature;BME280_humidity;BME280_pressure;Samples;Min_cycle;Max_cycle;Signal;HPM_P1;HPM_P2
2023/09/03 00:01:32;;;;;;;5.57;2.33;;;19.00;99.90;;;;;;5036723;28;20020;-66
2023/09/03 00:03:58;;;;;;;3.42;2.28;;;18.90;99.90;;;;;;5035763;28;20075;-66
2023/09/03 00:06:23;;;;;;;7.80;2.38;;;18.90;99.90;;;;;;5036595;28;20112;-66
2023/09/03 00:08:49;;;;;;;6.55;2.60;;;19.00;99.90;;;;;;5035913;28;20029;-66
2023/09/03 00:11:15;;;;;;;10.13;2.70;;;19.00;99.90;;;;;;5036050;28;20044;-66
2023/09/03 00:13:42;;;;;;;5.03;2.38;;;18.90;99.90;;;;;;5036467;28;20056;-65
2023/09/03 00:16:08;;;;;;;6.70;2.38;;;18.90;99.90;;;;;;5036725;28;20033;-66
2023/09/03 00:18:34;;;;;;;5.13;2.40;;;18.90;99.90;;;;;;5035658;28;20025;-66
2023/09/03 00:21:02;;;;;;;4.13;2.40;;;18.90;99.90;;;;;;5036011;28;20029;-66
2023/09/03 00:23:28;;;;;;;5.47;2.53;;;18.90;99.90;;;;;;5035752;28;20085;-66
2023/09/03 00:25:56;;;;;;;8.25;2.30;;;18.90;99.90;;;;;;5035809;28;20022;-66
2023/09/03 00:28:22;;;;;;;4.45;2.63;;;18.90;99.90;;;;;;5035609;28;20033;-66
2023/09/03 00:31:01;;;;;;;6.03;2.30;;;18.80;99.90;;;;;;5035836;28;20025;-66
2023/09/03 00:33:28;;;;;;;4.70;2.33;;;18.90;99.90;;;;;;5040012;28;20111;-66
2023/09/03 00:35:53;;;;;;;4.88;2.67;;;18.90;99.90;;;;;;5040040;28;20053;-66
2023/09/03 00:38:19;;;;;;;3.55;2.72;;;18.90;99.90;;;;;;5039755;28;20089;-66
2023/09/03 00:40:44;;;;;;;3.47;2.28;;;18.90;99.90;;;;;;5039308;28;20026;-66
2023/09/03 00:43:10;;;;;;;7.22;2.50;;;18.90;99.90;;;;;;5039086;28;20028;-66
2023/09/03 00:45:35;;;;;;;7.63;2.90;;;18.90;99.90;;;;;;5039624;28;20025;-66
2023/09/03 00:48:02;;;;;;;5.45;2.70;;;18.90;99.90;;;;;;5039310;28;20022;-66
2023/09/03 00:50:29;;;;;;;4.18;2.53;;;18.80;99.90;;;;;;5039244;28;20029;-66
2023/09/03 00:52:55;;;;;;;3.72;2.33;;;18.70;99.90;;;;;;5038705;28;20121;-66
2023/09/03 00:55:20;;;;;;;4.50;2.47;;;18.70;99.90;;;;;;5038868;28;20120;-66
2023/09/03 00:57:48;;;;;;;6.22;2.70;;;18.70;99.90;;;;;;5038786;28;20028;-66
2023/09/03 01:00:14;;;;;;;3.30;2.65;;;18.70;99.90;;;;;;5039545;28;20022;-66
2023/09/03 01:02:44;;;;;;;6.07;2.70;;;18.70;99.90;;;;;;5039078;28;20025;-66
2023/09/03 01:05:09;;;;;;;4.53;2.75;;;18.70;99.90;;;;;;5038658;28;20018;-66
2023/09/03 01:07:35;;;;;;;3.58;2.78;;;18.70;99.90;;;;;;5039439;28;20029;-66
2023/09/03 01:10:01;;;;;;;6.85;2.40;;;18.70;99.90;;;;;;5039005;28;20068;-66
2023/09/03 01:12:46;;;;;;;4.15;2.90;;;18.70;99.90;;;;;;5038770;28;20021;-66
2023/09/03 01:15:17;;;;;;;2.85;2.55;;;18.60;99.90;;;;;;5038673;28;20120;-66
2023/09/03 01:17:54;;;;;;;3.35;2.53;;;18.60;99.90;;;;;;5039119;28;20026;-67
2023/09/03 01:20:29;;;;;;;4.35;2.17;;;18.60;99.90;;;;;;5039223;28;20025;-67
2023/09/03 01:23:49;;;;;;;3.78;3.00;;;18.50;99.90;;;;;;5038672;28;20138;-67
2023/09/03 01:26:53;;;;;;;3.40;2.70;;;18.50;99.90;;;;;;5017707;28;20109;-67
2023/09/03 01:29:19;;;;;;;2.97;2.50;;;18.50;99.90;;;;;;5038623;28;20037;-67
2023/09/03 01:31:45;;;;;;;6.07;2.70;;;18.40;99.90;;;;;;5038106;28;20029;-67
2023/09/03 01:34:12;;;;;;;5.28;2.50;;;18.40;99.90;;;;;;5038445;28;20026;-67
2023/09/03 01:36:38;;;;;;;3.33;2.55;;;18.40;99.90;;;;;;5038341;28;20025;-67
2023/09/03 01:39:04;;;;;;;6.30;2.72;;;18.40;99.90;;;;;;5037929;28;20120;-67
2023/09/03 01:41:34;;;;;;;10.38;3.30;;;18.30;99.90;;;;;;5038523;28;20099;-67
2023/09/03 01:44:02;;;;;;;4.18;2.83;;;18.40;99.90;;;;;;5037030;28;20033;-67
2023/09/03 01:46:51;;;;;;;3.78;2.65;;;18.40;99.90;;;;;;5038242;28;20063;-67
2023/09/03 01:49:46;;;;;;;7.18;2.90;;;18.50;99.90;;;;;;5038728;28;20033;-67
2023/09/03 01:52:37;;;;;;;4.57;2.50;;;18.40;99.90;;;;;;5038831;28;20053;-67
2023/09/03 01:55:07;;;;;;;4.18;2.50;;;18.40;99.90;;;;;;5038322;28;20128;-67
2023/09/03 01:57:39;;;;;;;6.45;2.63;;;18.20;99.90;;;;;;5037906;28;20029;-67
2023/09/03 02:00:07;;;;;;;5.80;3.10;;;18.20;99.90;;;;;;5038673;28;20025;-67
2023/09/03 02:02:34;;;;;;;11.70;3.33;;;18.20;99.90;;;;;;5038189;28;20025;-67
2023/09/03 02:04:59;;;;;;;9.48;3.97;;;18.20;99.90;;;;;;5038392;28;20105;-67
2023/09/03 02:07:25;;;;;;;6.85;3.88;;;18.20;99.90;;;;;;5038270;28;20057;-67
2023/09/03 02:09:51;;;;;;;6.85;3.63;;;18.20;99.90;;;;;;5037666;28;20029;-67
2023/09/03 02:12:23;;;;;;;5.78;4.00;;;18.20;99.90;;;;;;5038158;28;20036;-67
2023/09/03 02:14:52;;;;;;;6.10;3.83;;;18.20;99.90;;;;;;5037332;28;20029;-67
2023/09/03 02:17:21;;;;;;;8.77;3.92;;;18.20;99.90;;;;;;5037967;28;20043;-67
2023/09/03 02:19:49;;;;;;;8.75;4.00;;;18.20;99.90;;;;;;5037157;28;20025;-67
2023/09/03 02:22:14;;;;;;;6.30;4.20;;;18.20;99.90;;;;;;5037470;28;20028;-67
2023/09/03 02:24:40;;;;;;;13.05;3.88;;;18.20;99.90;;;;;;5037354;28;20120;-67
2023/09/03 02:27:05;;;;;;;10.05;4.00;;;18.20;99.90;;;;;;5037191;28;20025;-67
2023/09/03 02:29:31;;;;;;;6.65;4.03;;;18.20;99.90;;;;;;5036965;28;20026;-67
2023/09/03 02:31:56;;;;;;;7.30;4.50;;;18.20;99.90;;;;;;5037503;28;20029;-67
2023/09/03 02:34:22;;;;;;;6.20;4.63;;;18.20;99.90;;;;;;5037222;28;20048;-67
2023/09/03 02:36:47;;;;;;;6.63;4.30;;;18.20;99.90;;;;;;5037934;28;20064;-67
2023/09/03 02:39:14;;;;;;;8.15;4.50;;;18.20;99.90;;;;;;5037086;28;20117;-67
2023/09/03 02:41:39;;;;;;;10.88;4.63;;;18.10;99.90;;;;;;5036701;28;20116;-66
2023/09/03 02:44:07;;;;;;;9.40;4.70;;;18.20;99.90;;;;;;5036738;28;20085;-66
2023/09/03 02:46:32;;;;;;;7.43;4.35;;;18.20;99.90;;;;;;5037515;28;20049;-66
2023/09/03 02:48:58;;;;;;;9.77;4.07;;;18.30;99.90;;;;;;5037613;28;20025;-66
2023/09/03 02:51:24;;;;;;;4.63;3.92;;;18.40;99.90;;;;;;5036665;28;20040;-66
2023/09/03 02:53:51;;;;;;;9.65;4.50;;;18.40;99.90;;;;;;5027677;22;20035;-66
2023/09/03 02:56:17;;;;;;;5.57;3.70;;;18.40;99.90;;;;;;5010367;28;20029;-66
2023/09/03 02:58:45;;;;;;;6.00;3.63;;;18.40;99.90;;;;;;5010316;28;20023;-67
2023/09/03 03:01:14;;;;;;;12.60;3.60;;;18.50;99.90;;;;;;4977667;28;20109;-66
2023/09/03 03:03:41;;;;;;;7.95;3.28;;;18.60;99.90;;;;;;5010204;28;20026;-67
2023/09/03 03:06:06;;;;;;;4.93;3.47;;;18.60;99.90;;;;;;4978553;28;20102;-66
2023/09/03 03:08:32;;;;;;;7.13;3.42;;;18.70;99.90;;;;;;5010036;28;20121;-67
2023/09/03 03:11:11;;;;;;;9.13;4.35;;;18.60;99.90;;;;;;4978530;28;20033;-66
2023/09/03 03:13:42;;;;;;;6.40;3.90;;;18.40;99.90;;;;;;5009941;28;20022;-66
2023/09/03 03:16:12;;;;;;;4.85;3.78;;;18.20;99.90;;;;;;4978642;28;20077;-67
2023/09/03 03:18:40;;;;;;;5.57;4.00;;;18.10;99.90;;;;;;4977655;28;20042;-67
2023/09/03 03:21:08;;;;;;;9.35;4.00;;;18.00;99.90;;;;;;5009950;28;20027;-66
2023/09/03 03:23:35;;;;;;;9.00;4.32;;;18.00;99.90;;;;;;4977252;28;20027;-66
2023/09/03 03:26:01;;;;;;;11.48;4.10;;;18.00;99.90;;;;;;5009905;28;20118;-66
2023/09/03 03:28:32;;;;;;;6.78;3.38;;;17.90;99.90;;;;;;4978870;28;20038;-68
2023/09/03 03:31:07;;;;;;;6.50;4.43;;;18.00;99.90;;;;;;4978364;28;20102;-68
2023/09/03 03:33:32;;;;;;;9.35;4.50;;;18.00;99.90;;;;;;5010100;28;20103;-68
2023/09/03 03:35:59;;;;;;;8.38;4.47;;;18.00;99.90;;;;;;5010148;28;20122;-68
2023/09/03 03:38:25;;;;;;;7.45;4.10;;;18.00;99.90;;;;;;5010291;28;20023;-68
2023/09/03 03:40:50;;;;;;;9.63;4.07;;;18.00;99.90;;;;;;5009689;28;20093;-68
2023/09/03 03:43:16;;;;;;;4.95;3.78;;;17.90;99.90;;;;;;5009682;28;20045;-68
2023/09/03 03:45:41;;;;;;;6.22;3.90;;;17.80;99.90;;;;;;5010426;28;20019;-68
2023/09/03 03:48:07;;;;;;;8.50;4.30;;;17.80;99.90;;;;;;5009989;28;20031;-68
2023/09/03 03:50:32;;;;;;;8.45;4.38;;;17.80;99.90;;;;;;5009587;28;20034;-68
2023/09/03 03:52:58;;;;;;;6.55;3.55;;;17.80;99.90;;;;;;5010367;28;20035;-68
2023/09/03 03:55:23;;;;;;;5.88;3.97;;;17.80;99.90;;;;;;5009607;28;20031;-71
2023/09/03 03:57:48;;;;;;;9.32;4.30;;;17.80;99.90;;;;;;5009625;28;20135;-71
2023/09/03 04:00:14;;;;;;;7.05;3.90;;;17.80;99.90;;;;;;5010629;28;20054;-71
2023/09/03 04:02:40;;;;;;;6.55;3.80;;;17.90;99.90;;;;;;5009678;28;20033;-71
2023/09/03 04:05:05;;;;;;;5.22;3.95;;;17.90;99.90;;;;;;4977005;28;20077;-71
2023/09/03 04:07:31;;;;;;;7.90;3.33;;;17.90;99.90;;;;;;5012582;28;20043;-71
2023/09/03 04:09:59;;;;;;;5.55;3.72;;;17.90;99.90;;;;;;5013342;28;20027;-71
2023/09/03 04:12:24;;;;;;;7.78;4.15;;;17.80;99.90;;;;;;4981817;28;20030;-71
2023/09/03 04:14:50;;;;;;;4.82;3.08;;;17.80;99.90;;;;;;4980846;28;20023;-71
2023/09/03 04:17:15;;;;;;;7.35;3.72;;;17.80;99.90;;;;;;4980739;28;20023;-71
2023/09/03 04:19:43;;;;;;;4.85;3.00;;;17.70;99.90;;;;;;4981637;28;20034;-71
2023/09/03 04:22:09;;;;;;;10.95;4.65;;;17.70;99.90;;;;;;5013372;28;20019;-71
2023/09/03 04:24:34;;;;;;;7.03;3.83;;;17.70;99.90;;;;;;5013200;28;20014;-71
2023/09/03 04:27:00;;;;;;;5.80;3.70;;;17.70;99.90;;;;;;4980818;28;20039;-71
2023/09/03 04:29:25;;;;;;;10.25;4.88;;;17.70;99.90;;;;;;4980721;28;20118;-71
2023/09/03 04:31:51;;;;;;;11.65;3.67;;;17.70;99.90;;;;;;4981208;28;20026;-71
2023/09/03 04:34:16;;;;;;;8.15;3.25;;;17.60;99.90;;;;;;5012868;28;20121;-71
2023/09/03 04:36:42;;;;;;;4.70;3.10;;;17.60;99.90;;;;;;5012879;28;20027;-67
2023/09/03 04:39:08;;;;;;;4.10;3.00;;;17.50;99.90;;;;;;5013049;28;20034;-67
2023/09/03 04:41:33;;;;;;;8.98;3.13;;;17.60;99.90;;;;;;5012790;28;20019;-66
2023/09/03 04:44:07;;;;;;;4.38;3.10;;;17.60;99.90;;;;;;5013056;28;20023;-66
2023/09/03 04:46:32;;;;;;;6.05;3.22;;;17.60;99.90;;;;;;5012793;28;20026;-71
2023/09/03 04:48:58;;;;;;;7.78;3.25;;;17.60;99.90;;;;;;5012569;28;20031;-71
2023/09/03 04:51:23;;;;;;;5.53;3.33;;;17.50;99.90;;;;;;5012923;28;20058;-71
2023/09/03 04:53:49;;;;;;;9.73;2.53;;;17.50;99.90;;;;;;5012229;28;20034;-71
2023/09/03 04:56:14;;;;;;;11.18;3.17;;;17.50;99.90;;;;;;5012696;28;20053;-71
2023/09/03 04:58:40;;;;;;;8.15;3.65;;;17.50;99.90;;;;;;5012412;28;20045;-71
2023/09/03 05:01:17;;;;;;;8.00;2.95;;;17.50;99.90;;;;;;4981011;28;20031;-71
2023/09/03 05:03:44;;;;;;;4.65;3.25;;;17.40;99.90;;;;;;5012743;28;20023;-71
2023/09/03 05:06:13;;;;;;;8.43;4.65;;;17.40;99.90;;;;;;5012362;28;20019;-71
2023/09/03 05:08:39;;;;;;;6.00;3.80;;;17.40;99.90;;;;;;5012240;28;20019;-71
2023/09/03 05:11:11;;;;;;;6.32;3.58;;;17.40;99.90;;;;;;5012194;28;20029;-71
2023/09/03 05:13:37;;;;;;;6.15;3.55;;;17.40;99.90;;;;;;5012407;28;20114;-71
2023/09/03 05:16:04;;;;;;;4.97;3.63;;;17.40;99.90;;;;;;5012469;28;20055;-71
2023/09/03 05:18:30;;;;;;;6.43;3.65;;;17.40;99.90;;;;;;5010861;28;20027;-71
2023/09/03 05:20:56;;;;;;;6.30;4.40;;;17.40;99.90;;;;;;5012695;28;20058;-71
2023/09/03 05:23:22;;;;;;;8.32;5.25;;;17.40;99.90;;;;;;5011962;28;20019;-71
2023/09/03 05:25:47;;;;;;;9.73;4.60;;;17.40;99.90;;;;;;4980178;28;20069;-71
2023/09/03 05:28:13;;;;;;;11.38;4.93;;;17.40;99.90;;;;;;5011853;28;20114;-66
2023/09/03 05:30:38;;;;;;;9.20;4.47;;;17.50;99.90;;;;;;4980694;28;20042;-66
2023/09/03 05:33:04;;;;;;;8.07;5.03;;;17.50;99.90;;;;;;5011763;28;20030;-66
2023/09/03 05:35:30;;;;;;;9.07;4.43;;;17.50;99.90;;;;;;4979164;28;20035;-66
2023/09/03 05:37:55;;;;;;;10.60;5.28;;;17.50;99.90;;;;;;5011625;28;20026;-66
2023/09/03 05:40:21;;;;;;;8.00;5.68;;;17.50;99.90;;;;;;5011555;28;20033;-67
2023/09/03 05:42:48;;;;;;;8.70;4.93;;;17.50;99.90;;;;;;4980432;28;20031;-68
2023/09/03 05:45:13;;;;;;;7.07;5.13;;;17.50;99.90;;;;;;5011616;28;20027;-68
2023/09/03 05:47:39;;;;;;;11.00;5.60;;;17.50;99.90;;;;;;5011529;28;20023;-68
2023/09/03 05:50:05;;;;;;;7.53;5.45;;;17.50;99.90;;;;;;5012312;28;20027;-68
2023/09/03 05:52:31;;;;;;;12.95;6.53;;;17.50;99.90;;;;;;5012080;28;20038;-69
2023/09/03 05:54:57;;;;;;;13.07;6.07;;;17.50;99.90;;;;;;4979156;28;20034;-68
2023/09/03 05:57:23;;;;;;;16.30;7.28;;;17.60;99.90;;;;;;5011384;28;20027;-68
2023/09/03 05:59:50;;;;;;;12.77;6.70;;;17.60;99.90;;;;;;4979621;28;20030;-68
2023/09/03 06:02:16;;;;;;;11.07;7.00;;;17.50;99.90;;;;;;4978673;28;20117;-68
2023/09/03 06:04:42;;;;;;;14.65;7.18;;;17.50;99.90;;;;;;5011415;28;20085;-68
2023/09/03 06:07:09;;;;;;;16.48;8.20;;;17.50;99.90;;;;;;5011520;28;20027;-68
2023/09/03 06:09:35;;;;;;;13.85;7.35;;;17.50;99.90;;;;;;5011736;28;20113;-68
2023/09/03 06:12:01;;;;;;;13.55;7.47;;;17.60;99.90;;;;;;4979520;28;20042;-68
2023/09/03 06:14:27;;;;;;;13.13;7.70;;;17.60;99.90;;;;;;5011026;28;20023;-67
2023/09/03 06:16:54;;;;;;;11.45;7.50;;;17.60;99.90;;;;;;4979326;28;20030;-67
2023/09/03 06:19:20;;;;;;;14.65;7.97;;;17.60;99.90;;;;;;4979286;28;20018;-68
2023/09/03 06:21:46;;;;;;;11.68;7.90;;;17.70;99.90;;;;;;4979297;28;20097;-71
2023/09/03 06:24:12;;;;;;;13.13;8.05;;;17.70;99.90;;;;;;5011827;28;20081;-71
2023/09/03 06:26:38;;;;;;;20.17;8.85;;;17.80;99.90;;;;;;4978992;28;20034;-71
2023/09/03 06:29:03;;;;;;;14.63;8.95;;;17.80;99.90;;;;;;5010336;28;20030;-72
2023/09/03 06:31:29;;;;;;;19.23;9.63;;;17.90;99.90;;;;;;5010888;28;20050;-72
2023/09/03 06:33:54;;;;;;;21.25;9.63;;;17.90;99.90;;;;;;5010903;28;20027;-72
2023/09/03 06:36:20;;;;;;;21.50;11.40;;;17.90;99.90;;;;;;5010676;28;20041;-71
2023/09/03 06:38:46;;;;;;;19.30;10.23;;;17.80;99.90;;;;;;5011560;28;20034;-71
2023/09/03 06:41:12;;;;;;;20.42;10.77;;;17.80;99.90;;;;;;5011455;28;20072;-72
2023/09/03 06:43:38;;;;;;;23.17;12.18;;;17.80;99.90;;;;;;5010415;28;20106;-72
2023/09/03 06:46:04;;;;;;;26.27;13.68;;;17.90;99.90;;;;;;5011081;28;20105;-72
2023/09/03 06:48:29;;;;;;;25.98;11.88;;;17.80;99.90;;;;;;5010506;28;20022;-71
2023/09/03 06:50:56;;;;;;;28.67;12.65;;;17.90;99.90;;;;;;5011169;28;20022;-71
2023/09/03 06:53:21;;;;;;;27.75;12.88;;;17.90;99.90;;;;;;5010466;28;20030;-71
2023/09/03 06:55:47;;;;;;;26.25;12.90;;;17.90;99.90;;;;;;5010433;28;20065;-71
2023/09/03 06:58:13;;;;;;;25.40;13.52;;;17.90;99.90;;;;;;5010347;28;20094;-70
2023/09/03 07:00:38;;;;;;;28.13;14.57;;;18.00;99.90;;;;;;5010209;28;20081;-71
2023/09/03 07:03:04;;;;;;;25.88;14.20;;;17.80;99.90;;;;;;4977655;28;20022;-71
2023/09/03 07:05:30;;;;;;;29.75;15.48;;;17.80;99.90;;;;;;5010903;28;20053;-71
2023/09/03 07:07:55;;;;;;;28.33;14.40;;;18.00;99.90;;;;;;5010235;28;20027;-71
2023/09/03 07:10:21;;;;;;;24.63;13.63;;;18.00;99.90;;;;;;5010107;28;20050;-71
2023/09/03 07:12:46;;;;;;;29.50;15.23;;;18.10;99.90;;;;;;4978527;28;20108;-71
2023/09/03 07:15:12;;;;;;;31.40;14.85;;;18.10;99.90;;;;;;5010418;28;20050;-71
2023/09/03 07:17:37;;;;;;;31.00;14.80;;;18.00;99.90;;;;;;5009973;28;20133;-71
2023/09/03 07:20:03;;;;;;;29.02;14.95;;;18.10;99.90;;;;;;4977386;28;20030;-71
2023/09/03 07:22:29;;;;;;;26.60;14.02;;;18.10;99.90;;;;;;5009828;28;20027;-71
2023/09/03 07:24:55;;;;;;;32.97;14.65;;;18.20;99.90;;;;;;5010194;28;20030;-71
2023/09/03 07:27:20;;;;;;;28.73;15.13;;;18.20;99.90;;;;;;4977726;28;20030;-71
2023/09/03 07:29:46;;;;;;;27.50;14.73;;;18.20;99.90;;;;;;4977772;28;20026;-71
2023/09/03 07:32:11;;;;;;;24.77;14.32;;;18.30;99.90;;;;;;4978296;28;20073;-71
2023/09/03 07:34:37;;;;;;;27.45;14.75;;;18.30;99.90;;;;;;4977273;28;20061;-71
2023/09/03 07:37:02;;;;;;;26.33;14.07;;;18.50;99.90;;;;;;4978623;28;20027;-71
2023/09/03 07:39:28;;;;;;;30.00;14.40;;;18.60;99.90;;;;;;5009694;28;20030;-71
2023/09/03 07:41:56;;;;;;;24.33;13.23;;;18.70;99.90;;;;;;4979311;28;20019;-71
2023/09/03 07:44:23;;;;;;;24.55;13.52;;;18.70;99.90;;;;;;4982489;28;20019;-71
2023/09/03 07:46:49;;;;;;;26.50;13.60;;;18.70;99.90;;;;;;4982008;28;20073;-71
2023/09/03 07:49:15;;;;;;;23.67;12.95;;;18.70;99.90;;;;;;5013868;28;20030;-71
2023/09/03 07:51:41;;;;;;;23.75;13.23;;;18.80;99.90;;;;;;5013715;28;20037;-71
2023/09/03 07:54:06;;;;;;;29.80;14.65;;;18.80;99.90;;;;;;4980853;28;20035;-71
2023/09/03 07:56:32;;;;;;;25.58;13.80;;;18.90;99.90;;;;;;4981171;28;20019;-71
2023/09/03 07:58:57;;;;;;;24.35;14.45;;;19.00;99.90;;;;;;5013687;28;20062;-71
2023/09/03 08:01:23;;;;;;;26.15;13.73;;;19.10;99.90;;;;;;4980984;28;20113;-71
2023/09/03 08:03:48;;;;;;;27.80;13.05;;;19.20;99.90;;;;;;5013627;28;20057;-71
2023/09/03 08:06:14;;;;;;;25.98;13.48;;;19.20;99.90;;;;;;5013851;28;20015;-71
2023/09/03 08:08:39;;;;;;;25.45;14.55;;;19.30;99.90;;;;;;5013499;28;20078;-71
2023/09/03 08:11:05;;;;;;;27.55;13.25;;;19.30;99.90;;;;;;5013192;28;20030;-71
2023/09/03 08:13:31;;;;;;;20.80;13.30;;;19.40;99.90;;;;;;4981528;28;20105;-71
2023/09/03 08:15:56;;;;;;;23.58;13.82;;;19.50;99.90;;;;;;4981573;28;20118;-71
2023/09/03 08:18:22;;;;;;;21.15;12.68;;;19.60;99.90;;;;;;5013182;28;20033;-71
2023/09/03 08:20:49;;;;;;;22.00;13.07;;;19.60;99.90;;;;;;5013173;28;20054;-71
2023/09/03 08:23:15;;;;;;;25.25;12.95;;;19.60;99.90;;;;;;5013407;28;20050;-71
2023/09/03 08:25:41;;;;;;;23.17;13.48;;;19.70;99.90;;;;;;5013063;28;20026;-71
2023/09/03 08:28:08;;;;;;;28.63;12.73;;;19.70;99.90;;;;;;5013290;28;20106;-71
2023/09/03 08:30:34;;;;;;;22.33;12.82;;;19.70;99.90;;;;;;5013080;28;20035;-71
2023/09/03 08:33:00;;;;;;;22.25;13.23;;;19.70;99.90;;;;;;5013357;28;20162;-71
2023/09/03 08:35:27;;;;;;;18.45;10.65;;;19.60;99.90;;;;;;5012902;28;20027;-71
2023/09/03 08:37:53;;;;;;;20.13;11.77;;;19.60;99.90;;;;;;5012929;28;20031;-71
2023/09/03 08:40:19;;;;;;;19.83;11.05;;;19.70;99.90;;;;;;4981002;28;20035;-71
2023/09/03 08:42:47;;;;;;;20.63;11.43;;;19.80;99.90;;;;;;5013545;28;20034;-71
2023/09/03 08:45:15;;;;;;;22.02;11.43;;;19.80;99.90;;;;;;5012737;28;20031;-71
2023/09/03 08:47:41;;;;;;;20.20;11.38;;;19.90;99.90;;;;;;5012930;28;20055;-72
2023/09/03 08:50:11;;;;;;;17.08;11.18;;;20.00;99.90;;;;;;4981222;28;20049;-72
2023/09/03 08:52:38;;;;;;;20.08;11.68;;;20.10;99.90;;;;;;5012274;28;20035;-70
2023/09/03 08:55:05;;;;;;;16.63;10.07;;;20.00;99.90;;;;;;5013132;28;20066;-68
2023/09/03 08:57:34;;;;;;;15.32;9.15;;;20.00;99.90;;;;;;5012806;28;20034;-68
2023/09/03 09:00:06;;;;;;;20.30;9.60;;;20.10;99.90;;;;;;5012568;28;20034;-68
2023/09/03 09:02:36;;;;;;;18.17;10.52;;;20.30;99.90;;;;;;5012416;28;20034;-68
2023/09/03 09:05:04;;;;;;;16.52;10.18;;;20.30;99.90;;;;;;5012283;28;20019;-68
2023/09/03 09:07:29;;;;;;;16.17;9.02;;;20.40;99.90;;;;;;5012438;28;20057;-68
2023/09/03 09:09:58;;;;;;;16.05;10.30;;;20.50;99.90;;;;;;5012310;28;20027;-68
2023/09/03 09:12:58;;;;;;;17.70;9.73;;;20.50;99.90;;;;;;5012300;28;20081;-68
2023/09/03 09:15:23;;;;;;;16.20;8.85;;;20.50;99.90;;;;;;4980502;28;20027;-68
2023/09/03 09:17:49;;;;;;;14.35;9.40;;;20.50;99.90;;;;;;5012117;28;20041;-68
2023/09/03 09:20:19;;;;;;;15.25;8.77;;;20.50;99.90;;;;;;4980371;28;20058;-68
2023/09/03 09:22:46;;;;;;;13.48;8.77;;;20.50;99.90;;;;;;5011961;28;20063;-68
2023/09/03 09:25:23;;;;;;;13.27;8.43;;;20.60;99.90;;;;;;5011891;28;20057;-68
2023/09/03 09:27:51;;;;;;;14.27;9.02;;;20.70;99.90;;;;;;4980379;28;20023;-68
2023/09/03 09:30:27;;;;;;;17.67;9.27;;;20.70;99.90;;;;;;5012006;28;20023;-68
2023/09/03 09:33:03;;;;;;;11.77;8.77;;;21.00;99.90;;;;;;5011973;28;20034;-68
2023/09/03 09:35:29;;;;;;;13.38;8.25;;;21.10;99.90;;;;;;4980180;28;20026;-68
2023/09/03 09:37:54;;;;;;;13.73;8.57;;;21.10;99.90;;;;;;4980200;28;20034;-68
2023/09/03 09:40:28;;;;;;;13.63;8.15;;;21.20;99.90;;;;;;5012207;28;20035;-68
2023/09/03 09:42:56;;;;;;;15.25;7.47;;;21.20;99.90;;;;;;4980003;28;20021;-68
2023/09/03 09:45:22;;;;;;;11.95;8.27;;;21.10;99.90;;;;;;5011557;28;20117;-68
2023/09/03 09:48:06;;;;;;;13.50;7.80;;;21.10;99.90;;;;;;5011764;28;20058;-68
2023/09/03 09:50:36;;;;;;;13.82;7.38;;;21.30;99.90;;;;;;4980187;28;20026;-68
2023/09/03 09:53:03;;;;;;;10.43;6.72;;;21.40;99.90;;;;;;4978745;28;20037;-68
2023/09/03 09:55:31;;;;;;;9.27;6.30;;;21.50;99.90;;;;;;5012415;28;20038;-68
2023/09/03 09:57:57;;;;;;;13.60;7.60;;;21.60;99.90;;;;;;4979766;28;20026;-68
2023/09/03 10:00:38;;;;;;;11.55;6.70;;;21.60;99.90;;;;;;5011777;28;20030;-68
2023/09/03 10:03:10;;;;;;;;;;;21.70;99.90;;;;;;5011558;28;20023;-68
2023/09/03 10:05:48;;;;;;;9.43;7.03;;;21.80;99.90;;;;;;4978384;28;19933;-68
2023/09/03 10:08:15;;;;;;;12.27;6.43;;;21.80;99.90;;;;;;5011319;28;20110;-68
2023/09/03 10:10:41;;;;;;;10.68;7.15;;;21.80;99.90;;;;;;5011285;28;20035;-68
2023/09/03 10:13:08;;;;;;;8.50;6.28;;;21.90;99.90;;;;;;5011865;28;20027;-68
2023/09/03 10:15:35;;;;;;;12.90;7.93;;;22.00;99.90;;;;;;5011339;28;20030;-68
2023/09/03 10:18:02;;;;;;;9.52;6.88;;;22.30;99.90;;;;;;5011119;28;20034;-68
2023/09/03 10:20:28;;;;;;;8.63;5.97;;;22.40;99.90;;;;;;5010907;28;20031;-68
2023/09/03 10:22:56;;;;;;;8.18;5.18;;;22.40;99.90;;;;;;5010855;28;20019;-68
2023/09/03 10:25:25;;;;;;;9.93;5.55;;;22.50;99.90;;;;;;4978368;28;20059;-68
2023/09/03 10:27:57;;;;;;;8.70;5.55;;;22.70;99.90;;;;;;5011559;28;20114;-68
2023/09/03 10:30:26;;;;;;;8.02;5.40;;;22.50;99.90;;;;;;4979153;28;20081;-68
2023/09/03 10:32:53;;;;;;;7.68;5.38;;;22.60;99.90;;;;;;4978200;28;20026;-68
2023/09/03 10:35:19;;;;;;;5.50;4.45;;;22.90;99.90;;;;;;4978238;28;20034;-68
2023/09/03 10:37:44;;;;;;;5.70;4.28;;;22.90;99.90;;;;;;4978994;28;20029;-68
2023/09/03 10:40:29;;;;;;;7.50;4.70;;;23.10;99.90;;;;;;4978415;28;20057;-68
2023/09/03 10:43:18;;;;;;;7.32;5.40;;;23.40;99.90;;;;;;4979147;28;20030;-65
2023/09/03 10:46:04;;;;;;;5.95;4.70;;;23.60;99.90;;;;;;4979168;28;20015;-66
2023/09/03 10:48:29;;;;;;;9.52;5.32;;;23.80;99.90;;;;;;4978899;28;20023;-66
2023/09/03 10:50:55;;;;;;;9.30;5.20;;;24.00;99.90;;;;;;4978202;28;20057;-66
2023/09/03 10:53:41;;;;;;;6.07;4.72;;;24.10;99.90;;;;;;5010447;28;20070;-66
2023/09/03 10:56:11;;;;;;;5.90;4.90;;;24.30;99.90;;;;;;5010403;28;20023;-66
2023/09/03 10:58:55;;;;;;;7.25;5.20;;;24.30;99.90;;;;;;5010398;28;20041;-66
2023/09/03 11:01:30;;;;;;;10.23;5.28;;;24.00;99.90;;;;;;4978668;28;20030;-66
2023/09/03 11:03:57;;;;;;;10.02;5.15;;;23.70;99.90;;;;;;4977718;28;20033;-65
2023/09/03 11:06:25;;;;;;;5.68;4.95;;;23.70;99.90;;;;;;4978631;28;20026;-66
2023/09/03 11:08:59;;;;;;;7.38;4.82;;;23.80;99.90;;;;;;5010148;28;20023;-66
2023/09/03 11:11:30;;;;;;;7.78;4.93;;;23.70;99.90;;;;;;4978655;28;20081;-66
2023/09/03 11:13:56;;;;;;;8.43;4.80;;;23.70;99.90;;;;;;5010604;28;20027;-65
2023/09/03 11:16:29;;;;;;;6.38;4.70;;;23.70;99.90;;;;;;5009863;28;20038;-66
2023/09/03 11:18:55;;;;;;;6.00;4.72;;;23.70;99.90;;;;;;4978376;28;20027;-66
2023/09/03 11:21:23;;;;;;;5.70;4.30;;;23.90;99.90;;;;;;5010065;28;20031;-66
2023/09/03 11:24:02;;;;;;;6.22;4.50;;;24.10;99.90;;;;;;4977669;28;20022;-66
2023/09/03 11:26:29;;;;;;;5.28;4.10;;;24.20;99.90;;;;;;4977352;28;20015;-66
2023/09/03 11:28:54;;;;;;;4.97;4.38;;;24.10;99.90;;;;;;4978512;28;20105;-66
2023/09/03 11:31:20;;;;;;;5.40;3.42;;;24.00;99.90;;;;;;4978562;28;20105;-65
2023/09/03 11:33:46;;;;;;;4.18;3.53;;;24.00;99.90;;;;;;4978065;28;20027;-66
2023/09/03 11:36:12;;;;;;;5.75;3.63;;;24.30;99.90;;;;;;4978236;28;20023;-65
2023/09/03 11:38:37;;;;;;;5.22;3.70;;;24.20;99.90;;;;;;4977416;28;20023;-66
2023/09/03 11:41:03;;;;;;;4.35;3.08;;;24.60;99.90;;;;;;4978097;28;20034;-66
2023/09/03 11:43:35;;;;;;;5.65;3.08;;;24.90;99.90;;;;;;4977368;28;20047;-66
2023/09/03 11:46:01;;;;;;;3.78;3.20;;;25.20;99.90;;;;;;4978182;28;20111;-66
2023/09/03 11:48:30;;;;;;;6.22;3.75;;;25.30;99.90;;;;;;5009670;28;20139;-66
2023/09/03 11:50:55;;;;;;;4.53;3.90;;;25.20;99.90;;;;;;4978035;28;20087;-66
2023/09/03 11:53:23;;;;;;;8.25;3.97;;;25.40;99.90;;;;;;5009707;28;20047;-66
2023/09/03 11:55:52;;;;;;;6.65;3.45;;;25.20;99.90;;;;;;4977102;28;20029;-66
2023/09/03 11:58:20;;;;;;;4.35;3.33;;;25.10;99.90;;;;;;5009693;28;20027;-66
2023/09/03 12:00:46;;;;;;;6.30;3.67;;;25.50;99.90;;;;;;5010113;28;20034;-66
2023/09/03 12:03:13;;;;;;;4.28;3.88;;;25.70;99.90;;;;;;5009595;28;20027;-66
2023/09/03 12:05:38;;;;;;;6.82;3.95;;;25.80;99.90;;;;;;5009566;28;20023;-66
2023/09/03 12:08:05;;;;;;;4.47;3.40;;;25.90;99.90;;;;;;5009705;28;20030;-66
2023/09/03 12:10:31;;;;;;;4.03;3.13;;;26.00;99.90;;;;;;4977035;28;20026;-66
2023/09/03 12:13:01;;;;;;;6.10;3.42;;;26.20;99.90;;;;;;5009420;28;20090;-66
2023/09/03 12:15:29;;;;;;;3.47;3.17;;;26.40;99.90;;;;;;4977343;28;20031;-66
2023/09/03 12:18:07;;;;;;;3.92;2.80;;;26.10;99.90;;;;;;4977849;28;20027;-66
2023/09/03 12:20:33;;;;;;;6.50;3.35;;;26.10;99.90;;;;;;4977048;28;20033;-66
2023/09/03 12:23:20;;;;;;;4.05;2.72;;;26.20;99.90;;;;;;4976854;28;20026;-66
2023/09/03 12:25:46;;;;;;;3.45;2.78;;;26.50;99.90;;;;;;5009837;28;20027;-66
2023/09/03 12:28:12;;;;;;;3.20;2.90;;;26.50;99.90;;;;;;5011899;28;20114;-66
2023/09/03 12:30:56;;;;;;;3.95;2.53;;;26.20;99.90;;;;;;4981428;28;20030;-66
2023/09/03 12:33:26;;;;;;;3.00;2.65;;;26.30;99.90;;;;;;4980657;28;20027;-66
2023/09/03 12:36:06;;;;;;;3.90;2.30;;;26.30;99.90;;;;;;5013771;28;20031;-66
2023/09/03 12:38:46;;;;;;;3.38;2.60;;;26.10;99.90;;;;;;4980437;28;20054;-66
2023/09/03 12:41:11;;;;;;;6.38;3.00;;;26.00;99.90;;;;;;5013761;28;20077;-66
2023/09/03 12:43:37;;;;;;;2.92;2.65;;;26.00;99.90;;;;;;5012723;28;20027;-66
2023/09/03 12:46:03;;;;;;;3.45;2.80;;;26.10;99.90;;;;;;5012734;28;20023;-66